createdAt,value
2023-04-13T00:07:01.996Z,26.154
2023-04-13T00:22:03.855Z,25.746
2023-04-13T00:37:05.645Z,26.214
2023-04-13T00:52:07.447Z,26.25
2023-04-13T01:07:09.282Z,26.345
2023-04-13T01:22:11.219Z,26.538
2023-04-13T01:37:13.114Z,26.223
2023-04-13T01:52:14.828Z,26.599
2023-04-13T02:07:16.585Z,26.418
2023-04-13T02:22:18.349Z,26.664
2023-04-13T02:37:20.184Z,26.859
2023-04-13T02:52:21.952Z,26.314
2023-04-13T03:07:24.017Z,26.5
2023-04-13T03:22:25.881Z,27.137
2023-04-13T03:37:27.619Z,26.27
2023-04-13T03:52:29.410Z,25.868
2023-04-13T04:07:31.160Z,24.923
2023-04-13T04:22:33.179Z,24.73
2023-04-13T04:37:34.955Z,24.939
2023-04-13T04:52:36.749Z,24.571
2023-04-13T05:07:38.514Z,24.438
2023-04-13T05:22:40.238Z,24.344
2023-04-13T05:37:42.036Z,24.374
2023-04-13T05:52:43.779Z,24.372
2023-04-13T06:07:45.529Z,24.298
2023-04-13T06:22:47.251Z,24.206
2023-04-13T06:37:48.943Z,23.978
2023-04-13T06:52:50.700Z,24.15
2023-04-13T07:07:52.431Z,24.079
2023-04-13T07:22:54.293Z,24.009
2023-04-13T07:37:56.056Z,24.759
2023-04-13T07:52:57.828Z,24.86
2023-04-13T08:07:59.610Z,24.664
2023-04-13T08:23:01.398Z,23.918
2023-04-13T08:38:03.145Z,23.886
2023-04-13T08:53:04.861Z,23.902
2023-04-13T09:08:06.594Z,24.406
2023-04-13T09:23:08.320Z,24.135
2023-04-13T09:38:10.093Z,24.156
2023-04-13T09:53:11.857Z,23.538
2023-04-13T10:08:14.334Z,24.205
2023-04-13T10:23:17.061Z,23.929
2023-04-13T10:38:18.823Z,23.327
2023-04-13T10:53:20.575Z,23.318
2023-04-13T11:08:22.353Z,23.933
2023-04-13T11:23:24.369Z,23.374
2023-04-13T11:38:26.310Z,23.331
2023-04-13T11:53:28.264Z,23.708
2023-04-13T12:08:30.656Z,23.738
2023-04-13T12:23:32.800Z,22.808
2023-04-13T12:38:34.653Z,23.402
2023-04-13T12:53:36.457Z,23.694
2023-04-13T13:08:40.271Z,23.301
2023-04-13T13:23:42.243Z,23.44
2023-04-13T13:38:43.974Z,23.433
2023-04-13T13:53:45.704Z,23.14
2023-04-13T14:08:47.432Z,23.536
2023-04-13T14:23:49.208Z,23.392
2023-04-13T14:38:50.951Z,23.118
2023-04-13T14:53:54.231Z,23.48
2023-04-13T15:08:57.330Z,23.282
2023-04-13T15:23:59.077Z,23.087
2023-04-13T15:39:01.160Z,23.319
2023-04-13T15:54:03.170Z,23.203
2023-04-13T16:09:05.045Z,23.562
2023-04-13T16:24:06.751Z,23.533
2023-04-13T16:39:08.792Z,24.184
2023-04-13T16:54:11.010Z,24.076
2023-04-13T17:09:12.752Z,24.672
2023-04-13T17:24:14.458Z,24.656
2023-04-13T17:39:16.182Z,25.085
2023-04-13T17:54:17.953Z,26.48
2023-04-13T18:09:19.741Z,26.726
2023-04-13T18:24:21.524Z,27.652
2023-04-13T18:39:23.246Z,28.137
2023-04-13T18:54:24.958Z,27.824
2023-04-13T19:09:26.792Z,27.497
2023-04-13T19:24:28.593Z,27.033
2023-04-13T19:39:30.375Z,27.534
2023-04-13T19:54:32.112Z,27.71
2023-04-13T20:09:34.086Z,27.346
2023-04-13T20:24:35.934Z,27.79
2023-04-13T20:39:37.690Z,26.93
2023-04-13T20:54:39.497Z,26.986
2023-04-13T21:09:41.195Z,26.79
2023-04-13T21:24:42.922Z,26.701
2023-04-13T21:39:44.713Z,26.781
2023-04-13T21:54:46.462Z,27.918
2023-04-13T22:09:48.190Z,27.719
2023-04-13T22:24:49.932Z,27.374
2023-04-13T22:39:51.741Z,27.422
2023-04-13T22:54:53.539Z,27.72
2023-04-13T23:09:55.321Z,26.988
2023-04-13T23:24:57.142Z,27.605
2023-04-13T23:39:58.924Z,26.362
2023-04-13T23:55:00.991Z,26.967
